sensor_id;sensor_type;location;lat;lon;timestamp;pressure;altitude;pressure_sealevel;temperature
71807;BMP280;59655;42.590;23.364;2023-04-01T00:00:28;90660.59;;;12.53
71807;BMP280;59655;42.590;23.364;2023-04-01T00:02:54;90664.28;;;12.48
71807;BMP280;59655;42.590;23.364;2023-04-01T00:05:20;90661.63;;;12.48
71807;BMP280;59655;42.590;23.364;2023-04-01T00:07:46;90655.03;;;12.49
71807;BMP280;59655;42.590;23.364;2023-04-01T00:10:13;90669.03;;;12.49
71807;BMP280;59655;42.590;23.364;2023-04-01T00:12:39;90663.16;;;12.51
71807;BMP280;59655;42.590;23.364;2023-04-01T00:15:06;90673.09;;;12.50
71807;BMP280;59655;42.590;23.364;2023-04-01T00:17:33;90674.06;;;12.45
71807;BMP280;59655;42.590;23.364;2023-04-01T00:19:59;90661.78;;;12.40
71807;BMP280;59655;42.590;23.364;2023-04-01T00:22:26;90667.66;;;12.39
71807;BMP280;59655;42.590;23.364;2023-04-01T00:24:52;90667.88;;;12.21
71807;BMP280;59655;42.590;23.364;2023-04-01T00:27:18;90669.13;;;12.20
71807;BMP280;59655;42.590;23.364;2023-04-01T00:29:45;90674.00;;;12.24
71807;BMP280;59655;42.590;23.364;2023-04-01T00:32:12;90664.78;;;12.25
71807;BMP280;59655;42.590;23.364;2023-04-01T00:34:38;90671.34;;;12.24
71807;BMP280;59655;42.590;23.364;2023-04-01T00:37:05;90669.53;;;12.17
71807;BMP280;59655;42.590;23.364;2023-04-01T00:39:32;90663.72;;;12.09
71807;BMP280;59655;42.590;23.364;2023-04-01T00:41:58;90657.28;;;12.12
71807;BMP280;59655;42.590;23.364;2023-04-01T00:44:26;90653.34;;;12.13
71807;BMP280;59655;42.590;23.364;2023-04-01T00:46:52;90641.19;;;12.10
71807;BMP280;59655;42.590;23.364;2023-04-01T00:49:20;90642.69;;;12.13
71807;BMP280;59655;42.590;23.364;2023-04-01T00:51:50;90641.91;;;12.00
71807;BMP280;59655;42.590;23.364;2023-04-01T00:54:18;90629.34;;;11.91
71807;BMP280;59655;42.590;23.364;2023-04-01T00:56:57;90644.59;;;11.91
71807;BMP280;59655;42.590;23.364;2023-04-01T00:59:27;90637.31;;;11.81
71807;BMP280;59655;42.590;23.364;2023-04-01T01:01:53;90622.31;;;11.96
71807;BMP280;59655;42.590;23.364;2023-04-01T01:04:29;90619.97;;;12.00
71807;BMP280;59655;42.590;23.364;2023-04-01T01:12:44;90616.84;;;12.03
71807;BMP280;59655;42.590;23.364;2023-04-01T01:15:26;90597.09;;;12.16
71807;BMP280;59655;42.590;23.364;2023-04-01T01:23:57;90595.88;;;11.88
71807;BMP280;59655;42.590;23.364;2023-04-01T01:32:03;90611.75;;;11.67
71807;BMP280;59655;42.590;23.364;2023-04-01T01:34:40;90602.44;;;11.56
71807;BMP280;59655;42.590;23.364;2023-04-01T01:37:15;90580.59;;;11.67
71807;BMP280;59655;42.590;23.364;2023-04-01T01:39:43;90594.88;;;11.62
71807;BMP280;59655;42.590;23.364;2023-04-01T01:42:09;90611.78;;;11.37
71807;BMP280;59655;42.590;23.364;2023-04-01T01:44:38;90576.28;;;11.52
71807;BMP280;59655;42.590;23.364;2023-04-01T01:47:05;90594.63;;;11.48
71807;BMP280;59655;42.590;23.364;2023-04-01T01:49:32;90590.53;;;11.47
71807;BMP280;59655;42.590;23.364;2023-04-01T01:51:58;90600.31;;;11.54
71807;BMP280;59655;42.590;23.364;2023-04-01T01:54:24;90565.09;;;11.54
71807;BMP280;59655;42.590;23.364;2023-04-01T01:57:15;90580.72;;;11.69
71807;BMP280;59655;42.590;23.364;2023-04-01T01:59:42;90575.41;;;11.79
71807;BMP280;59655;42.590;23.364;2023-04-01T02:02:10;90564.88;;;11.81
71807;BMP280;59655;42.590;23.364;2023-04-01T02:04:39;90566.97;;;11.82
71807;BMP280;59655;42.590;23.364;2023-04-01T02:07:21;90560.84;;;11.80
71807;BMP280;59655;42.590;23.364;2023-04-01T02:09:49;90564.47;;;11.84
71807;BMP280;59655;42.590;23.364;2023-04-01T02:12:16;90544.59;;;11.86
71807;BMP280;59655;42.590;23.364;2023-04-01T02:17:29;90556.03;;;11.88
71807;BMP280;59655;42.590;23.364;2023-04-01T02:22:38;90541.63;;;11.91
71807;BMP280;59655;42.590;23.364;2023-04-01T02:25:07;90534.06;;;11.88
71807;BMP280;59655;42.590;23.364;2023-04-01T02:27:33;90536.06;;;11.87
71807;BMP280;59655;42.590;23.364;2023-04-01T02:29:59;90538.13;;;11.89
71807;BMP280;59655;42.590;23.364;2023-04-01T02:32:26;90543.91;;;11.85
71807;BMP280;59655;42.590;23.364;2023-04-01T02:34:53;90551.59;;;11.81
71807;BMP280;59655;42.590;23.364;2023-04-01T02:37:19;90546.38;;;11.93
71807;BMP280;59655;42.590;23.364;2023-04-01T02:39:44;90545.53;;;12.00
71807;BMP280;59655;42.590;23.364;2023-04-01T02:42:10;90536.47;;;12.15
71807;BMP280;59655;42.590;23.364;2023-04-01T02:44:36;90550.78;;;12.10
71807;BMP280;59655;42.590;23.364;2023-04-01T02:47:01;90556.09;;;12.10
71807;BMP280;59655;42.590;23.364;2023-04-01T02:49:27;90550.78;;;12.10
71807;BMP280;59655;42.590;23.364;2023-04-01T02:51:52;90551.34;;;12.08
71807;BMP280;59655;42.590;23.364;2023-04-01T02:54:18;90551.00;;;12.23
71807;BMP280;59655;42.590;23.364;2023-04-01T02:56:44;90559.53;;;12.22
71807;BMP280;59655;42.590;23.364;2023-04-01T02:59:11;90557.31;;;12.18
71807;BMP280;59655;42.590;23.364;2023-04-01T03:01:36;90560.66;;;12.19
71807;BMP280;59655;42.590;23.364;2023-04-01T03:04:02;90571.78;;;12.15
71807;BMP280;59655;42.590;23.364;2023-04-01T03:06:27;90586.25;;;12.24
71807;BMP280;59655;42.590;23.364;2023-04-01T03:08:52;90594.75;;;12.32
71807;BMP280;59655;42.590;23.364;2023-04-01T03:11:18;90580.50;;;12.27
71807;BMP280;59655;42.590;23.364;2023-04-01T03:13:43;90576.31;;;12.24
71807;BMP280;59655;42.590;23.364;2023-04-01T03:16:09;90587.78;;;12.27
71807;BMP280;59655;42.590;23.364;2023-04-01T03:18:34;90576.84;;;12.33
71807;BMP280;59655;42.590;23.364;2023-04-01T03:21:17;90559.38;;;12.30
71807;BMP280;59655;42.590;23.364;2023-04-01T03:23:43;90549.53;;;12.32
71807;BMP280;59655;42.590;23.364;2023-04-01T03:26:08;90541.00;;;12.34
71807;BMP280;59655;42.590;23.364;2023-04-01T03:28:34;90547.00;;;12.34
71807;BMP280;59655;42.590;23.364;2023-04-01T03:30:59;90554.84;;;12.32
71807;BMP280;59655;42.590;23.364;2023-04-01T03:33:25;90545.38;;;12.29
71807;BMP280;59655;42.590;23.364;2023-04-01T03:35:51;90556.44;;;12.25
71807;BMP280;59655;42.590;23.364;2023-04-01T03:38:17;90559.97;;;12.18
71807;BMP280;59655;42.590;23.364;2023-04-01T03:40:43;90570.50;;;12.16
71807;BMP280;59655;42.590;23.364;2023-04-01T03:43:09;90552.00;;;12.18
71807;BMP280;59655;42.590;23.364;2023-04-01T03:45:36;90558.00;;;12.19
71807;BMP280;59655;42.590;23.364;2023-04-01T03:48:01;90556.50;;;12.16
71807;BMP280;59655;42.590;23.364;2023-04-01T03:50:27;90557.88;;;12.17
71807;BMP280;59655;42.590;23.364;2023-04-01T03:52:52;90550.03;;;12.19
71807;BMP280;59655;42.590;23.364;2023-04-01T03:55:18;90550.88;;;12.21
71807;BMP280;59655;42.590;23.364;2023-04-01T03:57:43;90541.63;;;12.22
71807;BMP280;59655;42.590;23.364;2023-04-01T04:00:10;90516.31;;;12.21
71807;BMP280;59655;42.590;23.364;2023-04-01T04:02:35;90500.91;;;12.20
71807;BMP280;59655;42.590;23.364;2023-04-01T04:05:01;90489.44;;;12.17
71807;BMP280;59655;42.590;23.364;2023-04-01T04:07:27;90478.22;;;12.19
71807;BMP280;59655;42.590;23.364;2023-04-01T04:09:52;90473.63;;;12.19
71807;BMP280;59655;42.590;23.364;2023-04-01T04:12:18;90469.69;;;12.20
71807;BMP280;59655;42.590;23.364;2023-04-01T04:14:43;90472.47;;;12.22
71807;BMP280;59655;42.590;23.364;2023-04-01T04:17:12;90469.56;;;12.18
71807;BMP280;59655;42.590;23.364;2023-04-01T04:19:41;90469.13;;;12.22
71807;BMP280;59655;42.590;23.364;2023-04-01T04:22:07;90472.78;;;12.17
71807;BMP280;59655;42.590;23.364;2023-04-01T04:24:34;90467.47;;;12.17
71807;BMP280;59655;42.590;23.364;2023-04-01T04:27:00;90458.41;;;12.10
71807;BMP280;59655;42.590;23.364;2023-04-01T04:29:26;90463.88;;;12.12
71807;BMP280;59655;42.590;23.364;2023-04-01T04:31:51;90450.00;;;12.14
71807;BMP280;59655;42.590;23.364;2023-04-01T04:34:17;90441.91;;;12.12
71807;BMP280;59655;42.590;23.364;2023-04-01T04:36:44;90439.94;;;12.12
71807;BMP280;59655;42.590;23.364;2023-04-01T04:39:09;90428.47;;;12.10
71807;BMP280;59655;42.590;23.364;2023-04-01T04:41:37;90415.88;;;12.10
71807;BMP280;59655;42.590;23.364;2023-04-01T04:44:03;90407.91;;;12.10
71807;BMP280;59655;42.590;23.364;2023-04-01T04:46:29;90404.56;;;12.10
71807;BMP280;59655;42.590;23.364;2023-04-01T04:48:54;90401.91;;;12.10
71807;BMP280;59655;42.590;23.364;2023-04-01T04:51:21;90396.84;;;12.14
71807;BMP280;59655;42.590;23.364;2023-04-01T04:53:46;90384.78;;;12.13
71807;BMP280;59655;42.590;23.364;2023-04-01T04:56:13;90382.69;;;12.11
71807;BMP280;59655;42.590;23.364;2023-04-01T04:58:40;90383.59;;;12.04
71807;BMP280;59655;42.590;23.364;2023-04-01T05:01:10;90381.97;;;11.99
71807;BMP280;59655;42.590;23.364;2023-04-01T05:03:37;90374.41;;;11.95
71807;BMP280;59655;42.590;23.364;2023-04-01T05:06:02;90380.72;;;12.00
71807;BMP280;59655;42.590;23.364;2023-04-01T05:08:28;90381.50;;;12.02
71807;BMP280;59655;42.590;23.364;2023-04-01T05:10:54;90378.75;;;12.00
71807;BMP280;59655;42.590;23.364;2023-04-01T05:13:19;90371.34;;;11.99
71807;BMP280;59655;42.590;23.364;2023-04-01T05:15:45;90373.44;;;12.00
71807;BMP280;59655;42.590;23.364;2023-04-01T05:18:10;90373.16;;;11.96
71807;BMP280;59655;42.590;23.364;2023-04-01T05:20:36;90371.19;;;11.97
71807;BMP280;59655;42.590;23.364;2023-04-01T05:23:01;90369.69;;;11.94
71807;BMP280;59655;42.590;23.364;2023-04-01T05:25:27;90366.91;;;11.92
71807;BMP280;59655;42.590;23.364;2023-04-01T05:27:53;90365.09;;;11.94
71807;BMP280;59655;42.590;23.364;2023-04-01T05:30:18;90351.91;;;11.96
71807;BMP280;59655;42.590;23.364;2023-04-01T05:32:43;90353.06;;;11.93
71807;BMP280;59655;42.590;23.364;2023-04-01T05:35:10;90343.56;;;11.90
71807;BMP280;59655;42.590;23.364;2023-04-01T05:37:36;90348.28;;;11.92
71807;BMP280;59655;42.590;23.364;2023-04-01T05:40:02;90353.16;;;11.95
71807;BMP280;59655;42.590;23.364;2023-04-01T05:42:28;90357.81;;;11.95
71807;BMP280;59655;42.590;23.364;2023-04-01T05:44:53;90357.34;;;11.98
71807;BMP280;59655;42.590;23.364;2023-04-01T05:47:20;90360.25;;;12.02
71807;BMP280;59655;42.590;23.364;2023-04-01T05:49:45;90349.75;;;12.04
71807;BMP280;59655;42.590;23.364;2023-04-01T05:52:11;90341.22;;;12.06
71807;BMP280;59655;42.590;23.364;2023-04-01T05:54:36;90338.00;;;12.08
71807;BMP280;59655;42.590;23.364;2023-04-01T05:57:02;90354.03;;;12.10
71807;BMP280;59655;42.590;23.364;2023-04-01T05:59:28;90346.19;;;12.12
71807;BMP280;59655;42.590;23.364;2023-04-01T06:01:53;90347.00;;;12.14
71807;BMP280;59655;42.590;23.364;2023-04-01T06:04:19;90335.34;;;12.19
71807;BMP280;59655;42.590;23.364;2023-04-01T06:06:45;90329.44;;;12.21
71807;BMP280;59655;42.590;23.364;2023-04-01T06:09:43;90329.84;;;12.27
71807;BMP280;59655;42.590;23.364;2023-04-01T06:20:27;90322.03;;;12.53
71807;BMP280;59655;42.590;23.364;2023-04-01T06:26:21;90302.63;;;12.62
71807;BMP280;59655;42.590;23.364;2023-04-01T06:45:52;90291.06;;;12.81
71807;BMP280;59655;42.590;23.364;2023-04-01T06:48:59;90295.44;;;12.88
71807;BMP280;59655;42.590;23.364;2023-04-01T06:51:43;90269.78;;;12.92
71807;BMP280;59655;42.590;23.364;2023-04-01T06:54:15;90286.19;;;12.89
71807;BMP280;59655;42.590;23.364;2023-04-01T06:56:44;90281.44;;;12.87
71807;BMP280;59655;42.590;23.364;2023-04-01T06:59:32;90277.88;;;12.71
71807;BMP280;59655;42.590;23.364;2023-04-01T07:02:32;90290.97;;;12.79
71807;BMP280;59655;42.590;23.364;2023-04-01T07:05:00;90262.03;;;12.73
71807;BMP280;59655;42.590;23.364;2023-04-01T07:09:58;90290.59;;;12.84
71807;BMP280;59655;42.590;23.364;2023-04-01T07:15:06;90288.06;;;12.86
71807;BMP280;59655;42.590;23.364;2023-04-01T07:17:39;90273.22;;;12.95
71807;BMP280;59655;42.590;23.364;2023-04-01T07:22:59;90254.75;;;13.34
71807;BMP280;59655;42.590;23.364;2023-04-01T07:25:30;90252.91;;;13.37
71807;BMP280;59655;42.590;23.364;2023-04-01T07:28:01;90253.94;;;13.44
71807;BMP280;59655;42.590;23.364;2023-04-01T07:30:32;90246.38;;;13.52
71807;BMP280;59655;42.590;23.364;2023-04-01T07:33:05;90255.84;;;13.55
71807;BMP280;59655;42.590;23.364;2023-04-01T07:35:42;90262.53;;;13.68
71807;BMP280;59655;42.590;23.364;2023-04-01T07:54:09;90258.59;;;14.59
71807;BMP280;59655;42.590;23.364;2023-04-01T07:56:39;90252.06;;;14.62
71807;BMP280;59655;42.590;23.364;2023-04-01T07:59:34;90249.50;;;14.64
71807;BMP280;59655;42.590;23.364;2023-04-01T08:05:22;90241.28;;;14.60
71807;BMP280;59655;42.590;23.364;2023-04-01T08:13:46;90243.25;;;14.60
71807;BMP280;59655;42.590;23.364;2023-04-01T08:22:02;90241.38;;;14.62
71807;BMP280;59655;42.590;23.364;2023-04-01T08:24:36;90243.94;;;14.74
71807;BMP280;59655;42.590;23.364;2023-04-01T08:27:09;90227.75;;;14.70
71807;BMP280;59655;42.590;23.364;2023-04-01T08:29:46;90213.50;;;14.79
71807;BMP280;59655;42.590;23.364;2023-04-01T08:32:39;90205.50;;;14.79
71807;BMP280;59655;42.590;23.364;2023-04-01T08:35:29;90185.50;;;14.80
71807;BMP280;59655;42.590;23.364;2023-04-01T08:38:04;90174.94;;;14.82
71807;BMP280;59655;42.590;23.364;2023-04-01T08:41:00;90180.22;;;14.96
71807;BMP280;59655;42.590;23.364;2023-04-01T08:44:18;90157.28;;;15.05
71807;BMP280;59655;42.590;23.364;2023-04-01T08:49:42;90151.34;;;15.06
71807;BMP280;59655;42.590;23.364;2023-04-01T08:58:23;90152.50;;;15.17
71807;BMP280;59655;42.590;23.364;2023-04-01T09:00:56;90171.69;;;15.27
71807;BMP280;59655;42.590;23.364;2023-04-01T09:06:25;90185.44;;;15.51
71807;BMP280;59655;42.590;23.364;2023-04-01T09:12:28;90166.91;;;15.55
71807;BMP280;59655;42.590;23.364;2023-04-01T09:35:10;90161.44;;;15.99
71807;BMP280;59655;42.590;23.364;2023-04-01T09:37:53;90140.41;;;15.91
71807;BMP280;59655;42.590;23.364;2023-04-01T10:25:18;90094.03;;;16.52
71807;BMP280;59655;42.590;23.364;2023-04-01T10:31:03;90083.91;;;16.66
71807;BMP280;59655;42.590;23.364;2023-04-01T10:42:03;90051.34;;;17.10
71807;BMP280;59655;42.590;23.364;2023-04-01T11:24:53;90021.31;;;16.06
71807;BMP280;59655;42.590;23.364;2023-04-01T12:04:11;90268.69;;;12.27
71807;BMP280;59655;42.590;23.364;2023-04-01T12:07:00;90248.81;;;11.61
71807;BMP280;59655;42.590;23.364;2023-04-01T12:23:44;90258.16;;;13.23
71807;BMP280;59655;42.590;23.364;2023-04-01T12:32:30;90231.03;;;13.64
71807;BMP280;59655;42.590;23.364;2023-04-01T13:07:17;90242.59;;;13.43
71807;BMP280;59655;42.590;23.364;2023-04-01T13:15:32;90247.88;;;13.55
71807;BMP280;59655;42.590;23.364;2023-04-01T13:18:11;90173.25;;;14.20
71807;BMP280;59655;42.590;23.364;2023-04-01T13:20:48;90166.41;;;16.54
71807;BMP280;59655;42.590;23.364;2023-04-01T13:28:53;90134.31;;;20.49
71807;BMP280;59655;42.590;23.364;2023-04-01T13:42:49;90163.16;;;21.97
71807;BMP280;59655;42.590;23.364;2023-04-01T13:45:21;90144.22;;;22.73
71807;BMP280;59655;42.590;23.364;2023-04-01T13:59:46;90141.66;;;23.28
71807;BMP280;59655;42.590;23.364;2023-04-01T14:02:34;90136.59;;;22.62
71807;BMP280;59655;42.590;23.364;2023-04-01T14:10:43;90109.38;;;18.78
71807;BMP280;59655;42.590;23.364;2023-04-01T14:18:24;90099.44;;;16.70
71807;BMP280;59655;42.590;23.364;2023-04-01T14:24:18;90084.72;;;16.03
71807;BMP280;59655;42.590;23.364;2023-04-01T14:32:16;90086.63;;;15.08
71807;BMP280;59655;42.590;23.364;2023-04-01T14:35:18;90079.38;;;14.81
71807;BMP280;59655;42.590;23.364;2023-04-01T14:37:49;90092.94;;;14.85
71807;BMP280;59655;42.590;23.364;2023-04-01T14:40:26;90112.66;;;14.50
71807;BMP280;59655;42.590;23.364;2023-04-01T14:51:02;90071.09;;;14.31
71807;BMP280;59655;42.590;23.364;2023-04-01T14:53:36;90070.69;;;14.23
71807;BMP280;59655;42.590;23.364;2023-04-01T14:56:04;90080.97;;;14.28
71807;BMP280;59655;42.590;23.364;2023-04-01T14:58:50;90075.44;;;13.97
71807;BMP280;59655;42.590;23.364;2023-04-01T15:04:48;90065.50;;;15.44
71807;BMP280;59655;42.590;23.364;2023-04-01T15:13:33;90084.97;;;16.09
71807;BMP280;59655;42.590;23.364;2023-04-01T15:16:15;90085.44;;;15.11
71807;BMP280;59655;42.590;23.364;2023-04-01T15:19:12;90099.94;;;14.92
71807;BMP280;59655;42.590;23.364;2023-04-01T15:24:27;90113.75;;;14.31
71807;BMP280;59655;42.590;23.364;2023-04-01T15:33:22;90106.06;;;14.37
71807;BMP280;59655;42.590;23.364;2023-04-01T15:36:13;90113.66;;;14.15
71807;BMP280;59655;42.590;23.364;2023-04-01T15:38:50;90120.47;;;13.91
71807;BMP280;59655;42.590;23.364;2023-04-01T15:41:43;90109.56;;;13.47
71807;BMP280;59655;42.590;23.364;2023-04-01T15:44:44;90115.19;;;13.39
71807;BMP280;59655;42.590;23.364;2023-04-01T15:52:36;90111.03;;;13.36
71807;BMP280;59655;42.590;23.364;2023-04-01T16:03:14;90201.47;;;12.15
71807;BMP280;59655;42.590;23.364;2023-04-01T16:11:20;90256.91;;;10.89
71807;BMP280;59655;42.590;23.364;2023-04-01T16:20:02;90302.75;;;10.29
71807;BMP280;59655;42.590;23.364;2023-04-01T16:22:45;90300.63;;;10.38
71807;BMP280;59655;42.590;23.364;2023-04-01T16:33:24;90314.22;;;9.83
71807;BMP280;59655;42.590;23.364;2023-04-01T16:35:58;90307.38;;;9.71
71807;BMP280;59655;42.590;23.364;2023-04-01T16:39:06;90302.25;;;9.92
71807;BMP280;59655;42.590;23.364;2023-04-01T16:41:36;90299.44;;;10.19
71807;BMP280;59655;42.590;23.364;2023-04-01T16:46:43;90306.69;;;10.28
71807;BMP280;59655;42.590;23.364;2023-04-01T16:54:39;90280.47;;;10.03
71807;BMP280;59655;42.590;23.364;2023-04-01T16:59:37;90274.88;;;9.60
71807;BMP280;59655;42.590;23.364;2023-04-01T17:05:13;90262.78;;;9.48
71807;BMP280;59655;42.590;23.364;2023-04-01T17:21:17;90312.06;;;8.96
71807;BMP280;59655;42.590;23.364;2023-04-01T17:24:04;90327.66;;;9.29
71807;BMP280;59655;42.590;23.364;2023-04-01T17:26:45;90336.44;;;9.05
71807;BMP280;59655;42.590;23.364;2023-04-01T17:35:01;90355.75;;;9.24
71807;BMP280;59655;42.590;23.364;2023-04-01T17:40:57;90355.41;;;9.38
71807;BMP280;59655;42.590;23.364;2023-04-01T17:43:53;90373.81;;;9.45
71807;BMP280;59655;42.590;23.364;2023-04-01T17:49:00;90359.75;;;9.62
71807;BMP280;59655;42.590;23.364;2023-04-01T17:59:56;90393.94;;;9.31
71807;BMP280;59655;42.590;23.364;2023-04-01T18:02:31;90393.38;;;8.96
71807;BMP280;59655;42.590;23.364;2023-04-01T18:10:38;90415.13;;;9.04
71807;BMP280;59655;42.590;23.364;2023-04-01T18:15:54;90420.91;;;8.93
71807;BMP280;59655;42.590;23.364;2023-04-01T18:19:00;90435.75;;;9.06
71807;BMP280;59655;42.590;23.364;2023-04-01T18:21:50;90431.56;;;8.85
71807;BMP280;59655;42.590;23.364;2023-04-01T18:27:33;90437.47;;;9.11
71807;BMP280;59655;42.590;23.364;2023-04-01T18:30:13;90440.53;;;9.17
71807;BMP280;59655;42.590;23.364;2023-04-01T18:32:44;90439.81;;;9.16
71807;BMP280;59655;42.590;23.364;2023-04-01T18:35:44;90425.00;;;9.03
71807;BMP280;59655;42.590;23.364;2023-04-01T18:38:20;90427.06;;;8.95
71807;BMP280;59655;42.590;23.364;2023-04-01T18:40:56;90428.75;;;9.00
71807;BMP280;59655;42.590;23.364;2023-04-01T18:43:33;90436.97;;;8.77
71807;BMP280;59655;42.590;23.364;2023-04-01T18:49:52;90435.81;;;8.36
71807;BMP280;59655;42.590;23.364;2023-04-01T18:52:03;90448.75;;;8.49
71807;BMP280;59655;42.590;23.364;2023-04-01T18:54:43;90444.97;;;8.52
71807;BMP280;59655;42.590;23.364;2023-04-01T18:57:15;90467.44;;;8.61
71807;BMP280;59655;42.590;23.364;2023-04-01T18:59:46;90458.41;;;8.64
71807;BMP280;59655;42.590;23.364;2023-04-01T19:02:27;90467.38;;;8.51
71807;BMP280;59655;42.590;23.364;2023-04-01T19:05:17;90480.13;;;8.45
71807;BMP280;59655;42.590;23.364;2023-04-01T19:07:54;90483.41;;;8.71
71807;BMP280;59655;42.590;23.364;2023-04-01T19:15:29;90471.25;;;8.85
71807;BMP280;59655;42.590;23.364;2023-04-01T19:20:38;90470.69;;;8.87
71807;BMP280;59655;42.590;23.364;2023-04-01T19:26:03;90492.72;;;8.89
71807;BMP280;59655;42.590;23.364;2023-04-01T19:37:40;90507.88;;;8.71
71807;BMP280;59655;42.590;23.364;2023-04-01T19:42:55;90525.00;;;8.28
71807;BMP280;59655;42.590;23.364;2023-04-01T19:45:38;90530.88;;;8.44
71807;BMP280;59655;42.590;23.364;2023-04-01T19:51:10;90540.34;;;8.47
71807;BMP280;59655;42.590;23.364;2023-04-01T19:53:47;90531.22;;;8.23
71807;BMP280;59655;42.590;23.364;2023-04-01T19:56:21;90536.16;;;8.44
71807;BMP280;59655;42.590;23.364;2023-04-01T20:01:50;90545.88;;;8.16
71807;BMP280;59655;42.590;23.364;2023-04-01T20:04:55;90551.94;;;8.09
71807;BMP280;59655;42.590;23.364;2023-04-01T20:07:35;90556.03;;;8.02
71807;BMP280;59655;42.590;23.364;2023-04-01T20:10:10;90548.00;;;7.92
71807;BMP280;59655;42.590;23.364;2023-04-01T20:15:39;90548.38;;;8.14
71807;BMP280;59655;42.590;23.364;2023-04-01T20:18:13;90547.81;;;8.41
71807;BMP280;59655;42.590;23.364;2023-04-01T20:21:06;90547.13;;;8.40
71807;BMP280;59655;42.590;23.364;2023-04-01T20:23:44;90542.84;;;8.20
71807;BMP280;59655;42.590;23.364;2023-04-01T20:26:12;90539.22;;;8.15
71807;BMP280;59655;42.590;23.364;2023-04-01T20:34:03;90551.00;;;8.14
71807;BMP280;59655;42.590;23.364;2023-04-01T20:36:39;90550.75;;;8.27
71807;BMP280;59655;42.590;23.364;2023-04-01T20:44:45;90556.50;;;8.08
71807;BMP280;59655;42.590;23.364;2023-04-01T20:50:35;90559.03;;;8.24
71807;BMP280;59655;42.590;23.364;2023-04-01T20:53:16;90552.16;;;8.03
71807;BMP280;59655;42.590;23.364;2023-04-01T21:07:11;90548.97;;;8.05
71807;BMP280;59655;42.590;23.364;2023-04-01T21:10:12;90559.50;;;8.12
71807;BMP280;59655;42.590;23.364;2023-04-01T21:18:19;90550.66;;;8.17
71807;BMP280;59655;42.590;23.364;2023-04-01T21:24:31;90565.75;;;8.25
71807;BMP280;59655;42.590;23.364;2023-04-01T21:32:36;90568.44;;;8.17
71807;BMP280;59655;42.590;23.364;2023-04-01T21:35:20;90578.94;;;8.25
71807;BMP280;59655;42.590;23.364;2023-04-01T21:40:37;90586.19;;;8.24
71807;BMP280;59655;42.590;23.364;2023-04-01T21:45:50;90579.41;;;8.31
71807;BMP280;59655;42.590;23.364;2023-04-01T21:54:30;90547.00;;;8.30
71807;BMP280;59655;42.590;23.364;2023-04-01T22:05:13;90576.56;;;8.36
71807;BMP280;59655;42.590;23.364;2023-04-01T22:11:09;90587.22;;;8.29
71807;BMP280;59655;42.590;23.364;2023-04-01T22:16:47;90568.84;;;8.31
71807;BMP280;59655;42.590;23.364;2023-04-01T22:19:46;90576.09;;;8.05
71807;BMP280;59655;42.590;23.364;2023-04-01T22:25:32;90570.31;;;7.99
71807;BMP280;59655;42.590;23.364;2023-04-01T22:28:04;90569.88;;;8.10
71807;BMP280;59655;42.590;23.364;2023-04-01T22:30:39;90580.22;;;8.16
71807;BMP280;59655;42.590;23.364;2023-04-01T22:44:00;90601.66;;;7.62
71807;BMP280;59655;42.590;23.364;2023-04-01T22:49:19;90589.38;;;7.57
71807;BMP280;59655;42.590;23.364;2023-04-01T22:51:49;90588.16;;;7.83
71807;BMP280;59655;42.590;23.364;2023-04-01T22:54:29;90608.03;;;7.92
71807;BMP280;59655;42.590;23.364;2023-04-01T22:57:03;90603.63;;;7.87
71807;BMP280;59655;42.590;23.364;2023-04-01T23:00:01;90598.16;;;7.92
71807;BMP280;59655;42.590;23.364;2023-04-01T23:02:40;90594.09;;;7.99
71807;BMP280;59655;42.590;23.364;2023-04-01T23:05:15;90588.28;;;7.93
71807;BMP280;59655;42.590;23.364;2023-04-01T23:10:56;90591.78;;;7.70
71807;BMP280;59655;42.590;23.364;2023-04-01T23:13:30;90597.41;;;7.67
71807;BMP280;59655;42.590;23.364;2023-04-01T23:15:57;90593.34;;;7.73
71807;BMP280;59655;42.590;23.364;2023-04-01T23:18:45;90597.72;;;7.38
71807;BMP280;59655;42.590;23.364;2023-04-01T23:21:18;90600.22;;;7.21
71807;BMP280;59655;42.590;23.364;2023-04-01T23:24:11;90591.84;;;7.55
71807;BMP280;59655;42.590;23.364;2023-04-01T23:29:17;90601.47;;;7.12
71807;BMP280;59655;42.590;23.364;2023-04-01T23:31:47;90596.28;;;7.29
71807;BMP280;59655;42.590;23.364;2023-04-01T23:36:43;90601.66;;;7.14
71807;BMP280;59655;42.590;23.364;2023-04-01T23:42:12;90623.78;;;7.19
71807;BMP280;59655;42.590;23.364;2023-04-01T23:44:39;90607.56;;;7.38
71807;BMP280;59655;42.590;23.364;2023-04-01T23:47:06;90617.47;;;7.22
71807;BMP280;59655;42.590;23.364;2023-04-01T23:49:45;90628.81;;;7.47
71807;BMP280;59655;42.590;23.364;2023-04-01T23:57:37;90624.59;;;7.44
